Barbarossa — IBJD — position and weather

sailwx.info

Track history (hours):
 
Tides and Currents Weather Stations Pressure Air Temp Water Temp Dewpoint Dewpoint Depression Visibility Wind Speed Wind Dir Waves Ship Positions

Barbarossa

Last reported at 2017-Sep-20 06:16 UTC. Time now 2017-Sep-21 01:30 UTC.
Position N 36°21' E 024°37'.

Length 294 m; draft 8.1 m.

Type: Passenger vessel. MMSI: 247282900.

Date/timePositionNaut miles runAvg speedWind from/ knotsBaromVisibWave heightAir tempDewpointWater temp
2017-Sep-20 06:16N 36°21' E 024°37'1815.6
2017-Sep-20 05:08N 36°20' E 024°15'216.1
2017-Sep-20 05:00N 36°20' E 024°13'815.9
2017-Sep-20 04:30N 36°21' E 024°03'1019.5
2017-Sep-20 04:00N 36°21' E 023°51'1019.8
2017-Sep-20 03:31N 36°21' E 023°39'1019.6
2017-Sep-20 03:00N 36°22' E 023°27'1019.5
2017-Sep-20 02:30N 36°22' E 023°14'30912.0
2017-Sep-19 00:51N 40°19' E 019°03'716.1
2017-Sep-19 00:26N 40°23' E 018°55'716.2
2017-Sep-19 00:00N 40°27' E 018°48'1417.1
2017-Sep-18 23:11N 40°35' E 018°33'2818.7
2017-Sep-18 21:40N 40°49' E 018°01'26311.2
2017-Sep-17 22:15N 44°06' E 014°03'518.9
2017-Sep-17 22:00N 44°09' E 013°59'918.8
2017-Sep-17 21:30N 44°17' E 013°52'918.5
2017-Sep-17 21:00N 44°25' E 013°45'918.4
2017-Sep-17 20:30N 44°32' E 013°38'918.5
2017-Sep-17 20:00N 44°40' E 013°30'918.4
2017-Sep-17 19:30N 44°48' E 013°24'918.3
2017-Sep-17 19:00N 44°55' E 013°16'918.3
2017-Sep-17 18:30N 45°02' E 013°07'918.0
2017-Sep-17 18:01N 45°08' E 012°58'917.7
2017-Sep-17 17:30N 45°15' E 012°49'918.1
2017-Sep-17 17:00N 45°19' E 012°38'816.5
2017-Sep-17 16:30N 45°24' E 012°28'4 8.7
2017-Sep-17 16:00N 45°26' E 012°23'2 4.9
2017-Sep-17 15:30N 45°26' E 012°19'1 1.2
2017-Sep-17 15:00N 45°26' E 012°19'0 0.0
2017-Sep-17 14:30N 45°26' E 012°19'0 0.0
2017-Sep-17 14:00N 45°26' E 012°19'0 0.0
2017-Sep-17 13:30N 45°26' E 012°19'0 0.0
2017-Sep-17 13:00N 45°26' E 012°19'0 0.0
2017-Sep-17 12:30N 45°26' E 012°19'0 0.0
2017-Sep-17 12:00N 45°26' E 012°19'0 0.0
2017-Sep-17 11:30N 45°26' E 012°19'0 0.0
2017-Sep-17 11:00N 45°26' E 012°19'0 0.0
2017-Sep-17 10:30N 45°26' E 012°19'0 0.0
2017-Sep-17 10:00N 45°26' E 012°19'0 0.0
2017-Sep-17 09:30N 45°26' E 012°19'0 0.0
2017-Sep-17 08:59N 45°26' E 012°19'0 0.0
2017-Sep-17 08:29N 45°26' E 012°19'0 0.0
2017-Sep-17 07:59N 45°26' E 012°19'0 0.0
2017-Sep-17 07:29N 45°26' E 012°19'0 0.0
2017-Sep-17 06:59N 45°26' E 012°19'0 0.4
2017-Sep-17 06:30N 45°26' E 012°19'1 2.9
2017-Sep-17 06:00N 45°26' E 012°21'2 5.0
2017-Sep-17 05:30N 45°26' E 012°24'4 8.6
2017-Sep-17 05:00N 45°24' E 012°29'611.8
2017-Sep-17 04:30N 45°21' E 012°37'816.9
2017-Sep-17 04:00N 45°17' E 012°47'816.9
2017-Sep-17 03:30N 45°10' E 012°55'917.9
2017-Sep-17 03:00N 45°04' E 013°03'918.4
2017-Sep-17 02:30N 44°59' E 013°14'1019.1
2017-Sep-17 02:00N 44°52' E 013°24'1020.4
2017-Sep-17 01:30N 44°44' E 013°32'1121.4
2017-Sep-17 01:00N 44°35' E 013°41'1121.3
2017-Sep-17 00:30N 44°26' E 013°49'1021.0
2017-Sep-17 00:00N 44°17' E 013°57'1020.4
2017-Sep-16 23:30N 44°09' E 014°05'1020.3
2017-Sep-16 23:00N 44°01' E 014°14'26510.6
2017-Sep-15 21:58N 40°60' E 018°37'715.1
2017-Sep-15 21:30N 40°53' E 018°39'1215.4
2017-Sep-15 20:44N 40°41' E 018°43'415.6
2017-Sep-15 20:28N 40°37' E 018°45'715.7
2017-Sep-15 20:00N 40°30' E 018°47'815.3
2017-Sep-15 19:30N 40°23' E 018°50'815.5
2017-Sep-15 19:00N 40°15' E 018°52'815.7
2017-Sep-15 18:30N 40°08' E 018°55'1115.6
2017-Sep-15 17:50N 39°58' E 018°58'915.6
2017-Sep-15 17:15N 39°49' E 019°02'415.8
2017-Sep-15 17:00N 39°46' E 019°05'816.0
2017-Sep-15 16:30N 39°38' E 019°09'815.8
2017-Sep-15 15:59N 39°31' E 019°14'815.6
2017-Sep-15 15:30N 39°25' E 019°19'915.1
2017-Sep-15 14:53N 39°16' E 019°25'1315.2
2017-Sep-15 14:01N 39°05' E 019°33'014.9
2017-Sep-15 14:00N 39°04' E 019°33'915.9
2017-Sep-15 13:26N 38°56' E 019°38'1916.2
2017-Sep-15 12:16N 38°40' E 019°49'516.3
2017-Sep-15 12:00N 38°36' E 019°52'916.2
2017-Sep-15 11:25N 38°27' E 019°57'21812.7
2017-Sep-14 18:17N 36°51' E 024°05'4115.4
2017-Sep-14 15:37N 37°12' E 024°50'215.9
2017-Sep-14 15:30N 37°13' E 024°52'816.5
2017-Sep-14 15:00N 37°16' E 025°01'918.5
2017-Sep-14 14:30N 37°24' E 025°07'816.1
2017-Sep-14 14:00N 37°28' E 025°16'3 5.1
2017-Sep-14 13:30N 37°27' E 025°19'0 0.0
2017-Sep-14 13:00N 37°27' E 025°19'0 0.0
2017-Sep-14 12:30N 37°27' E 025°19'0 0.0
2017-Sep-14 12:00N 37°27' E 025°19'0 0.0
2017-Sep-14 11:30N 37°27' E 025°19'0 0.0
2017-Sep-14 11:00N 37°27' E 025°19'0 0.0
2017-Sep-14 10:31N 37°27' E 025°19'0 0.0
2017-Sep-14 10:00N 37°27' E 025°19'0 0.0
2017-Sep-14 09:30N 37°27' E 025°19'0 0.0
2017-Sep-14 09:01N 37°27' E 025°19'0 0.0
2017-Sep-14 08:30N 37°27' E 025°19'0 0.0
2017-Sep-14 08:00N 37°27' E 025°19'0 0.0
2017-Sep-14 07:30N 37°27' E 025°19'0 0.0
2017-Sep-14 07:00N 37°27' E 025°19'0 0.0
2017-Sep-14 06:30N 37°27' E 025°19'0 0.0
2017-Sep-14 06:01N 37°27' E 025°19'0 0.0
2017-Sep-14 05:30N 37°27' E 025°19'0 0.0
2017-Sep-14 05:00N 37°27' E 025°19'0 0.0
2017-Sep-14 04:31N 37°27' E 025°19'0 0.0
2017-Sep-14 04:00N 37°27' E 025°19'0 0.2
2017-Sep-14 03:30N 37°27' E 025°19'2 4.9
2017-Sep-14 03:00N 37°27' E 025°16'612.9
2017-Sep-14 02:30N 37°26' E 025°08'713.4
2017-Sep-14 02:00N 37°20' E 025°06'713.5
2017-Sep-14 01:30N 37°17' E 024°59'713.8
2017-Sep-14 01:00N 37°14' E 024°51'  
2017-Sep-10 22:07N 44°05' E 014°03'218.9
2017-Sep-10 21:59N 44°07' E 014°02'918.8
2017-Sep-10 21:30N 44°14' E 013°55'1018.9
2017-Sep-10 21:00N 44°22' E 013°47'918.9
2017-Sep-10 20:30N 44°30' E 013°40'918.8
2017-Sep-10 20:00N 44°38' E 013°32'918.7
2017-Sep-10 19:30N 44°45' E 013°25'918.5
2017-Sep-10 19:00N 44°53' E 013°18'918.7
2017-Sep-10 18:30N 45°00' E 013°09'918.3
2017-Sep-10 18:00N 45°07' E 013°00'918.9
2017-Sep-10 17:30N 45°13' E 012°51'917.6
2017-Sep-10 17:00N 45°19' E 012°41'917.0
2017-Sep-10 16:30N 45°23' E 012°30'611.3
2017-Sep-10 16:00N 45°26' E 012°24'3 5.1
2017-Sep-10 15:30N 45°26' E 012°20'1 2.2
2017-Sep-10 14:58N 45°26' E 012°19'0 0.0
2017-Sep-10 13:59N 45°26' E 012°19'0 0.0
2017-Sep-10 13:30N 45°26' E 012°19'0 0.0
2017-Sep-10 13:00N 45°26' E 012°19'0 0.0
2017-Sep-10 12:30N 45°26' E 012°19'0 0.0
2017-Sep-10 12:00N 45°26' E 012°19'0 0.0
2017-Sep-10 11:30N 45°26' E 012°19'0 0.0
2017-Sep-10 11:00N 45°26' E 012°19'0 0.0
2017-Sep-10 10:30N 45°26' E 012°19'0 0.0
2017-Sep-10 10:00N 45°26' E 012°19'0 0.0
2017-Sep-10 09:30N 45°26' E 012°19'0 0.0
2017-Sep-10 09:00N 45°26' E 012°19'0 0.0
2017-Sep-10 08:30N 45°26' E 012°19'0 0.0
2017-Sep-10 08:00N 45°26' E 012°19'0 0.0
2017-Sep-10 07:30N 45°26' E 012°19'0 0.0
2017-Sep-10 07:00N 45°26' E 012°19'0 0.1
2017-Sep-10 06:30N 45°26' E 012°18'  
Track history (hours):
 
Tides and Currents Weather Stations Pressure Air Temp Water Temp Dewpoint Dewpoint Depression Visibility Wind Speed Wind Dir Waves Ship Positions

Barbarossa

Last reported at 2017-Sep-20 06:16 UTC. Time now 2017-Sep-21 01:30 UTC.
Position N 36°21' E 024°37'.

Length 294 m; draft 8.1 m.

Type: Passenger vessel. MMSI: 247282900.

Date/timePositionNaut miles runAvg speedWind from/ knotsBaromVisibWave heightAir tempDewpointWater temp
2017-Sep-20 06:16N 36°21' E 024°37'1815.6
2017-Sep-20 05:08N 36°20' E 024°15'216.1
2017-Sep-20 05:00N 36°20' E 024°13'815.9
2017-Sep-20 04:30N 36°21' E 024°03'1019.5
2017-Sep-20 04:00N 36°21' E 023°51'1019.8
2017-Sep-20 03:31N 36°21' E 023°39'1019.6
2017-Sep-20 03:00N 36°22' E 023°27'1019.5
2017-Sep-20 02:30N 36°22' E 023°14'30912.0
2017-Sep-19 00:51N 40°19' E 019°03'716.1
2017-Sep-19 00:26N 40°23' E 018°55'716.2
2017-Sep-19 00:00N 40°27' E 018°48'1417.1
2017-Sep-18 23:11N 40°35' E 018°33'2818.7
2017-Sep-18 21:40N 40°49' E 018°01'26311.2
2017-Sep-17 22:15N 44°06' E 014°03'518.9
2017-Sep-17 22:00N 44°09' E 013°59'918.8
2017-Sep-17 21:30N 44°17' E 013°52'918.5
2017-Sep-17 21:00N 44°25' E 013°45'918.4
2017-Sep-17 20:30N 44°32' E 013°38'918.5
2017-Sep-17 20:00N 44°40' E 013°30'918.4
2017-Sep-17 19:30N 44°48' E 013°24'918.3
2017-Sep-17 19:00N 44°55' E 013°16'918.3
2017-Sep-17 18:30N 45°02' E 013°07'918.0
2017-Sep-17 18:01N 45°08' E 012°58'917.7
2017-Sep-17 17:30N 45°15' E 012°49'918.1
2017-Sep-17 17:00N 45°19' E 012°38'816.5
2017-Sep-17 16:30N 45°24' E 012°28'4 8.7
2017-Sep-17 16:00N 45°26' E 012°23'2 4.9
2017-Sep-17 15:30N 45°26' E 012°19'1 1.2
2017-Sep-17 15:00N 45°26' E 012°19'0 0.0
2017-Sep-17 14:30N 45°26' E 012°19'0 0.0
2017-Sep-17 14:00N 45°26' E 012°19'0 0.0
2017-Sep-17 13:30N 45°26' E 012°19'0 0.0
2017-Sep-17 13:00N 45°26' E 012°19'0 0.0
2017-Sep-17 12:30N 45°26' E 012°19'0 0.0
2017-Sep-17 12:00N 45°26' E 012°19'0 0.0
2017-Sep-17 11:30N 45°26' E 012°19'0 0.0
2017-Sep-17 11:00N 45°26' E 012°19'0 0.0
2017-Sep-17 10:30N 45°26' E 012°19'0 0.0
2017-Sep-17 10:00N 45°26' E 012°19'0 0.0
2017-Sep-17 09:30N 45°26' E 012°19'0 0.0
2017-Sep-17 08:59N 45°26' E 012°19'0 0.0
2017-Sep-17 08:29N 45°26' E 012°19'0 0.0
2017-Sep-17 07:59N 45°26' E 012°19'0 0.0
2017-Sep-17 07:29N 45°26' E 012°19'0 0.0
2017-Sep-17 06:59N 45°26' E 012°19'0 0.4
2017-Sep-17 06:30N 45°26' E 012°19'1 2.9
2017-Sep-17 06:00N 45°26' E 012°21'2 5.0
2017-Sep-17 05:30N 45°26' E 012°24'4 8.6
2017-Sep-17 05:00N 45°24' E 012°29'611.8
2017-Sep-17 04:30N 45°21' E 012°37'816.9
2017-Sep-17 04:00N 45°17' E 012°47'816.9
2017-Sep-17 03:30N 45°10' E 012°55'917.9
2017-Sep-17 03:00N 45°04' E 013°03'918.4
2017-Sep-17 02:30N 44°59' E 013°14'1019.1
2017-Sep-17 02:00N 44°52' E 013°24'1020.4
2017-Sep-17 01:30N 44°44' E 013°32'1121.4
2017-Sep-17 01:00N 44°35' E 013°41'1121.3
2017-Sep-17 00:30N 44°26' E 013°49'1021.0
2017-Sep-17 00:00N 44°17' E 013°57'1020.4
2017-Sep-16 23:30N 44°09' E 014°05'1020.3
2017-Sep-16 23:00N 44°01' E 014°14'26510.6
2017-Sep-15 21:58N 40°60' E 018°37'715.1
2017-Sep-15 21:30N 40°53' E 018°39'1215.4
2017-Sep-15 20:44N 40°41' E 018°43'415.6
2017-Sep-15 20:28N 40°37' E 018°45'715.7
2017-Sep-15 20:00N 40°30' E 018°47'815.3
2017-Sep-15 19:30N 40°23' E 018°50'815.5
2017-Sep-15 19:00N 40°15' E 018°52'815.7
2017-Sep-15 18:30N 40°08' E 018°55'1115.6
2017-Sep-15 17:50N 39°58' E 018°58'915.6
2017-Sep-15 17:15N 39°49' E 019°02'415.8
2017-Sep-15 17:00N 39°46' E 019°05'816.0
2017-Sep-15 16:30N 39°38' E 019°09'815.8
2017-Sep-15 15:59N 39°31' E 019°14'815.6
2017-Sep-15 15:30N 39°25' E 019°19'915.1
2017-Sep-15 14:53N 39°16' E 019°25'1315.2
2017-Sep-15 14:01N 39°05' E 019°33'014.9
2017-Sep-15 14:00N 39°04' E 019°33'915.9
2017-Sep-15 13:26N 38°56' E 019°38'1916.2
2017-Sep-15 12:16N 38°40' E 019°49'516.3
2017-Sep-15 12:00N 38°36' E 019°52'916.2
2017-Sep-15 11:25N 38°27' E 019°57'21812.7
2017-Sep-14 18:17N 36°51' E 024°05'4115.4
2017-Sep-14 15:37N 37°12' E 024°50'215.9
2017-Sep-14 15:30N 37°13' E 024°52'816.5
2017-Sep-14 15:00N 37°16' E 025°01'918.5
2017-Sep-14 14:30N 37°24' E 025°07'816.1
2017-Sep-14 14:00N 37°28' E 025°16'3 5.1
2017-Sep-14 13:30N 37°27' E 025°19'0 0.0
2017-Sep-14 13:00N 37°27' E 025°19'0 0.0
2017-Sep-14 12:30N 37°27' E 025°19'0 0.0
2017-Sep-14 12:00N 37°27' E 025°19'0 0.0
2017-Sep-14 11:30N 37°27' E 025°19'0 0.0
2017-Sep-14 11:00N 37°27' E 025°19'0 0.0
2017-Sep-14 10:31N 37°27' E 025°19'0 0.0
2017-Sep-14 10:00N 37°27' E 025°19'0 0.0
2017-Sep-14 09:30N 37°27' E 025°19'0 0.0
2017-Sep-14 09:01N 37°27' E 025°19'0 0.0
2017-Sep-14 08:30N 37°27' E 025°19'0 0.0
2017-Sep-14 08:00N 37°27' E 025°19'0 0.0
2017-Sep-14 07:30N 37°27' E 025°19'0 0.0
2017-Sep-14 07:00N 37°27' E 025°19'0 0.0
2017-Sep-14 06:30N 37°27' E 025°19'0 0.0
2017-Sep-14 06:01N 37°27' E 025°19'0 0.0
2017-Sep-14 05:30N 37°27' E 025°19'0 0.0
2017-Sep-14 05:00N 37°27' E 025°19'0 0.0
2017-Sep-14 04:31N 37°27' E 025°19'0 0.0
2017-Sep-14 04:00N 37°27' E 025°19'0 0.2
2017-Sep-14 03:30N 37°27' E 025°19'2 4.9
2017-Sep-14 03:00N 37°27' E 025°16'612.9
2017-Sep-14 02:30N 37°26' E 025°08'713.4
2017-Sep-14 02:00N 37°20' E 025°06'713.5
2017-Sep-14 01:30N 37°17' E 024°59'713.8
2017-Sep-14 01:00N 37°14' E 024°51'  
2017-Sep-10 22:07N 44°05' E 014°03'218.9
2017-Sep-10 21:59N 44°07' E 014°02'918.8
2017-Sep-10 21:30N 44°14' E 013°55'1018.9
2017-Sep-10 21:00N 44°22' E 013°47'918.9
2017-Sep-10 20:30N 44°30' E 013°40'918.8
2017-Sep-10 20:00N 44°38' E 013°32'918.7
2017-Sep-10 19:30N 44°45' E 013°25'918.5
2017-Sep-10 19:00N 44°53' E 013°18'918.7
2017-Sep-10 18:30N 45°00' E 013°09'918.3
2017-Sep-10 18:00N 45°07' E 013°00'918.9
2017-Sep-10 17:30N 45°13' E 012°51'917.6
2017-Sep-10 17:00N 45°19' E 012°41'917.0
2017-Sep-10 16:30N 45°23' E 012°30'611.3
2017-Sep-10 16:00N 45°26' E 012°24'3 5.1
2017-Sep-10 15:30N 45°26' E 012°20'1 2.2
2017-Sep-10 14:58N 45°26' E 012°19'0 0.0
2017-Sep-10 13:59N 45°26' E 012°19'0 0.0
2017-Sep-10 13:30N 45°26' E 012°19'0 0.0
2017-Sep-10 13:00N 45°26' E 012°19'0 0.0
2017-Sep-10 12:30N 45°26' E 012°19'0 0.0
2017-Sep-10 12:00N 45°26' E 012°19'0 0.0
2017-Sep-10 11:30N 45°26' E 012°19'0 0.0
2017-Sep-10 11:00N 45°26' E 012°19'0 0.0
2017-Sep-10 10:30N 45°26' E 012°19'0 0.0
2017-Sep-10 10:00N 45°26' E 012°19'0 0.0
2017-Sep-10 09:30N 45°26' E 012°19'0 0.0
2017-Sep-10 09:00N 45°26' E 012°19'0 0.0
2017-Sep-10 08:30N 45°26' E 012°19'0 0.0
2017-Sep-10 08:00N 45°26' E 012°19'0 0.0
2017-Sep-10 07:30N 45°26' E 012°19'0 0.0
2017-Sep-10 07:00N 45°26' E 012°19'0 0.1
2017-Sep-10 06:30N 45°26' E 012°18'  

Dump ship's entire track history